Cooper Hill, Missouri
Current Conditions -  °F | °C
As of 11:04 PM on Thursday 30 Oct 2014 (Local Time) from KVIH Reporting Station
Haze Haze  
Wind Chill: 41°   Ceiling: Unl
Heat Index: 41°   Visibility: 1mi
Dew Point: 40°   Wind: 0mph
Humidity: 96%   Direction: NA
Pressure: 30.04"   Gusts: NA
Location:  38.3239°N, 91.6268°W
Report Text: KVIH 310404Z AUTO 00000KT 1SM BR FEW002 FEW090 05/04 A3004 RMK AO2 T00500044
Loading
Personal Weather Stations






























Interactive Weather Map
Tropical Storm Tracking
New forecast layout! Learn more

10-Day Weather Forecast

Advertisements
Track Severe Weather on mobile